createdAt,value
2023-02-14T00:00:35.345Z,103071.31
2023-02-14T00:03:07.622Z,103071.19
2023-02-14T00:05:37.306Z,103038.28
2023-02-14T00:08:06.979Z,103046.19
2023-02-14T00:10:36.645Z,103062.13
2023-02-14T00:13:06.326Z,103056.41
2023-02-14T00:15:33.377Z,103057.44
2023-02-14T00:18:03.606Z,103069.06
2023-02-14T00:20:37.044Z,103058.44
2023-02-14T00:23:06.628Z,103051.50
2023-02-14T00:25:36.870Z,103036.50
2023-02-14T00:28:06.622Z,103068.31
2023-02-14T00:30:37.356Z,103032.28
2023-02-14T00:33:07.818Z,103057.28
2023-02-14T00:35:42.828Z,103031.63
2023-02-14T00:38:12.467Z,103060.38
2023-02-14T00:40:42.652Z,103064.19
2023-02-14T00:43:12.267Z,103068.63
2023-02-14T00:45:41.896Z,103057.25
2023-02-14T00:48:11.624Z,103048.78
2023-02-14T00:50:45.858Z,103036.72
2023-02-14T00:53:15.683Z,103072.63
2023-02-14T00:55:47.857Z,103075.19
2023-02-14T00:58:18.015Z,103073.69
2023-02-14T01:00:47.638Z,103069.00
2023-02-14T01:03:17.415Z,103050.47
2023-02-14T01:05:50.354Z,103053.13
2023-02-14T01:08:20.803Z,103019.75
2023-02-14T01:10:50.575Z,103062.78
2023-02-14T01:13:20.693Z,103051.41
2023-02-14T01:15:52.717Z,103059.84
2023-02-14T01:18:22.386Z,103075.50
2023-02-14T01:20:54.603Z,103068.44
2023-02-14T01:23:24.223Z,103044.31
2023-02-14T01:25:53.851Z,103051.03
2023-02-14T01:28:23.478Z,103080.13
2023-02-14T01:30:53.135Z,103035.41
2023-02-14T01:33:22.755Z,103076.31
2023-02-14T01:35:54.937Z,103076.16
2023-02-14T01:38:24.541Z,103042.78
2023-02-14T01:40:54.156Z,103079.22
2023-02-14T01:43:23.788Z,103075.41
2023-02-14T01:45:53.560Z,103030.25
2023-02-14T01:48:25.588Z,103057.56
2023-02-14T01:50:59.009Z,103080.06
2023-02-14T01:53:31.854Z,103074.13
2023-02-14T01:56:06.796Z,103073.84
2023-02-14T01:58:40.415Z,103079.19
2023-02-14T02:01:07.620Z,103054.25
2023-02-14T02:03:41.847Z,103076.84
2023-02-14T02:06:19.291Z,103006.22
2023-02-14T02:08:58.611Z,103022.38
2023-02-14T02:11:28.614Z,103078.19
2023-02-14T02:13:58.396Z,103071.63
2023-02-14T02:16:41.947Z,103061.28
2023-02-14T02:19:33.602Z,103075.38
2023-02-14T02:22:23.956Z,103069.59
2023-02-14T02:25:03.245Z,103066.25
2023-02-14T02:27:51.266Z,103057.25
2023-02-14T02:30:47.058Z,103055.94
2023-02-14T02:33:58.115Z,103036.13
2023-02-14T02:37:10.891Z,103031.16
2023-02-14T02:39:52.992Z,103019.59
2023-02-14T02:42:30.331Z,103025.19
2023-02-14T02:45:09.559Z,103020.81
2023-02-14T02:47:47.360Z,103042.75
2023-02-14T02:50:37.983Z,103033.75
2023-02-14T02:53:19.144Z,102987.28
2023-02-14T02:56:07.613Z,103022.44
2023-02-14T02:58:40.514Z,103022.72
2023-02-14T03:01:14.386Z,103015.41
2023-02-14T03:03:59.372Z,103005.00
2023-02-14T03:06:29.179Z,103018.34
2023-02-14T03:09:11.969Z,103023.41
2023-02-14T03:11:51.778Z,103016.03
2023-02-14T03:14:25.139Z,103000.69
2023-02-14T03:17:06.523Z,103016.19
2023-02-14T03:20:08.135Z,102992.38
2023-02-14T03:22:48.505Z,102983.94
2023-02-14T03:25:31.120Z,103000.44
2023-02-14T03:28:09.137Z,103002.06
2023-02-14T03:30:48.368Z,102996.81
2023-02-14T03:33:25.443Z,102982.53
2023-02-14T03:36:02.002Z,102984.00
2023-02-14T03:38:38.623Z,102966.09
2023-02-14T03:41:16.013Z,102984.44
2023-02-14T03:43:50.248Z,102945.13
2023-02-14T03:46:25.593Z,102985.44
2023-02-14T03:48:59.820Z,102975.41
2023-02-14T03:51:34.356Z,102968.66
2023-02-14T03:54:05.970Z,102993.31
2023-02-14T03:56:42.798Z,102963.91
2023-02-14T03:59:17.349Z,102939.44
2023-02-14T04:01:53.262Z,102985.50
2023-02-14T04:04:26.305Z,102975.75
2023-02-14T04:06:56.388Z,102970.31
2023-02-14T04:09:26.108Z,102985.50
2023-02-14T04:11:58.339Z,102969.13
2023-02-14T04:14:29.579Z,102972.84
2023-02-14T04:17:11.789Z,102983.97
2023-02-14T04:19:41.398Z,102958.78
2023-02-14T04:22:11.132Z,102983.88
2023-02-14T04:24:40.761Z,102956.03
2023-02-14T04:27:13.676Z,102978.41
2023-02-14T04:29:45.726Z,102956.84
2023-02-14T04:32:17.667Z,102949.50
2023-02-14T04:34:47.709Z,102952.78
2023-02-14T04:37:19.346Z,102968.09
2023-02-14T04:39:49.167Z,102958.06
2023-02-14T04:42:21.413Z,102971.22
2023-02-14T04:44:51.065Z,102936.53
2023-02-14T04:47:20.932Z,102964.06
2023-02-14T04:49:50.613Z,102933.44
2023-02-14T04:52:20.335Z,102964.41
2023-02-14T04:54:50.451Z,102973.06
2023-02-14T04:57:22.687Z,102967.25
2023-02-14T04:59:52.334Z,102941.41
2023-02-14T05:02:21.997Z,102958.63
2023-02-14T05:04:51.742Z,102953.19
2023-02-14T05:07:21.350Z,102946.84
2023-02-14T05:09:50.944Z,102956.75
2023-02-14T05:12:23.116Z,102942.69
2023-02-14T05:14:52.721Z,102932.13
2023-02-14T05:17:22.364Z,102949.03
2023-02-14T05:19:51.967Z,102961.94
2023-02-14T05:22:21.570Z,102964.63
2023-02-14T05:24:51.450Z,102942.31
2023-02-14T05:27:23.631Z,102961.13
2023-02-14T05:29:53.289Z,102926.91
2023-02-14T05:32:23.004Z,102937.50
2023-02-14T05:34:52.674Z,102949.19
2023-02-14T05:37:22.295Z,102960.56
2023-02-14T05:39:51.924Z,102958.19
2023-02-14T05:42:24.301Z,102959.19
2023-02-14T05:44:53.932Z,102959.50
2023-02-14T05:47:23.555Z,102921.50
2023-02-14T05:49:53.313Z,102952.63
2023-02-14T05:52:22.920Z,102940.34
2023-02-14T05:54:52.702Z,102925.31
2023-02-14T05:57:24.970Z,102938.13
2023-02-14T05:59:54.582Z,102947.78
2023-02-14T06:02:24.222Z,102946.91
2023-02-14T06:04:53.970Z,102931.56
2023-02-14T06:07:23.600Z,102936.28
2023-02-14T06:09:53.252Z,102940.75
2023-02-14T06:12:25.463Z,102964.69
2023-02-14T06:14:55.096Z,102970.66
2023-02-14T06:17:24.721Z,102962.56
2023-02-14T06:19:54.317Z,102969.63
2023-02-14T06:22:24.193Z,102965.47
2023-02-14T06:24:53.841Z,102917.81
2023-02-14T06:27:26.014Z,102974.66
2023-02-14T06:29:55.691Z,102968.31
2023-02-14T06:32:25.885Z,102948.72
2023-02-14T06:34:55.620Z,102976.03
2023-02-14T06:37:25.240Z,102871.50
2023-02-14T06:39:54.837Z,102951.50
2023-02-14T06:42:27.204Z,102964.19
2023-02-14T06:44:56.805Z,102946.53
2023-02-14T06:47:26.411Z,102953.16
2023-02-14T06:49:56.237Z,102952.44
2023-02-14T06:52:25.838Z,102990.25
2023-02-14T06:54:55.525Z,102970.44
2023-02-14T06:57:27.822Z,102969.78
2023-02-14T06:59:57.765Z,102973.66
2023-02-14T07:02:27.405Z,102961.13
2023-02-14T07:04:57.165Z,102979.53
2023-02-14T07:07:26.773Z,102975.97
2023-02-14T07:09:59.254Z,102954.13
2023-02-14T07:12:31.496Z,102981.56
2023-02-14T07:15:01.196Z,102927.44
2023-02-14T07:17:37.705Z,102899.50
2023-02-14T07:20:11.781Z,102962.81
2023-02-14T07:22:48.137Z,102981.56
2023-02-14T07:25:18.960Z,102973.03
2023-02-14T07:28:00.964Z,102963.81
2023-02-14T07:30:36.146Z,102876.34
2023-02-14T07:33:10.190Z,102933.56
2023-02-14T07:35:43.422Z,102879.88
2023-02-14T07:44:28.167Z,102801.06
2023-02-14T07:46:57.823Z,102965.53
2023-02-14T07:49:27.490Z,102963.22
2023-02-14T07:51:57.126Z,102989.47
2023-02-14T07:54:27.076Z,102951.59
2023-02-14T07:56:57.622Z,102964.28
2023-02-14T07:59:30.366Z,102986.41
2023-02-14T08:02:01.009Z,102900.78
2023-02-14T08:04:32.943Z,102965.06
2023-02-14T08:07:06.632Z,102983.97
2023-02-14T08:09:37.421Z,102934.63
2023-02-14T08:12:22.843Z,102981.84
2023-02-14T08:15:16.392Z,102909.13
2023-02-14T08:17:46.093Z,102975.31
2023-02-14T08:20:16.044Z,102965.53
2023-02-14T08:22:45.688Z,102983.78
2023-02-14T08:25:15.350Z,102971.00
2023-02-14T08:27:44.976Z,102775.41
2023-02-14T08:30:18.536Z,102967.31
2023-02-14T08:32:48.493Z,102948.34
2023-02-14T08:35:18.387Z,102977.44
2023-02-14T08:37:48.021Z,102950.94
2023-02-14T08:40:18.026Z,102978.03
2023-02-14T08:42:47.644Z,102929.16
2023-02-14T08:45:20.172Z,102949.03
2023-02-14T08:48:03.592Z,102856.94
2023-02-14T08:54:16.411Z,102805.41
2023-02-14T09:04:21.694Z,102942.63
2023-02-14T09:20:35.172Z,102955.72
2023-02-14T09:23:07.668Z,102945.50
2023-02-14T09:25:49.498Z,102781.16
2023-02-14T09:28:29.450Z,102790.38
2023-02-14T09:31:13.000Z,102920.41
2023-02-14T09:33:50.314Z,102891.50
2023-02-14T10:30:54.345Z,102744.22
2023-02-14T10:34:15.277Z,102786.50
2023-02-14T10:37:25.167Z,102807.38
2023-02-14T10:40:56.610Z,102556.59
2023-02-14T10:44:37.480Z,102909.81
2023-02-14T10:53:09.013Z,102567.63
2023-02-14T10:57:13.404Z,102877.53
2023-02-14T11:00:59.911Z,102722.41
2023-02-14T11:06:03.445Z,102885.50
2023-02-14T11:17:10.103Z,102852.78
2023-02-14T11:23:54.579Z,102527.81
2023-02-14T11:26:28.724Z,102784.34
2023-02-14T11:29:03.901Z,102799.72
2023-02-14T11:31:36.781Z,102837.34
2023-02-14T11:34:09.454Z,102830.31
2023-02-14T11:36:44.123Z,102819.41
2023-02-14T11:39:25.825Z,102844.97
2023-02-14T11:41:58.205Z,102821.47
2023-02-14T11:44:33.086Z,102826.91
2023-02-14T11:47:22.751Z,102798.75
2023-02-14T11:50:01.157Z,102791.97
2023-02-14T11:52:32.747Z,102796.88
2023-02-14T11:55:04.424Z,102815.66
2023-02-14T11:57:38.472Z,102801.13
2023-02-14T12:00:19.552Z,102808.81
2023-02-14T12:02:51.684Z,102756.22
2023-02-14T12:05:24.131Z,102796.06
2023-02-14T12:07:56.865Z,102780.41
2023-02-14T12:10:31.866Z,102726.16
2023-02-14T12:13:03.635Z,102787.13
2023-02-14T12:15:41.230Z,102794.50
2023-02-14T12:18:39.694Z,102757.03
2023-02-14T12:21:24.141Z,102767.03
2023-02-14T12:24:01.460Z,102786.59
2023-02-14T12:26:35.766Z,102768.00
2023-02-14T12:29:14.284Z,102784.28
2023-02-14T12:31:49.342Z,102755.06
2023-02-14T12:34:21.570Z,102766.22
2023-02-14T12:37:19.829Z,102759.88
2023-02-14T12:40:07.800Z,102733.22
2023-02-14T12:42:49.730Z,102745.81
2023-02-14T12:45:28.406Z,102726.34
2023-02-14T12:48:16.299Z,102732.94
2023-02-14T12:50:53.351Z,102738.28
2023-02-14T12:53:40.632Z,102728.56
2023-02-14T12:56:19.310Z,102755.25
2023-02-14T12:59:01.590Z,102748.78
2023-02-14T13:01:47.978Z,102692.13
2023-02-14T13:04:56.029Z,102687.03
2023-02-14T13:07:38.379Z,102688.63
2023-02-14T13:10:18.148Z,102718.53
2023-02-14T13:12:54.358Z,102725.16
2023-02-14T13:15:29.955Z,102731.47
2023-02-14T13:18:07.367Z,102732.59
2023-02-14T13:20:46.035Z,102727.00
2023-02-14T13:23:20.200Z,102659.06
2023-02-14T13:25:54.590Z,102698.44
2023-02-14T13:28:25.687Z,102660.94
2023-02-14T13:30:57.914Z,102705.47
2023-02-14T13:33:34.984Z,102694.16
2023-02-14T13:36:11.633Z,102700.50
2023-02-14T13:38:46.340Z,102692.28
2023-02-14T13:41:18.129Z,102687.44
2023-02-14T13:43:49.182Z,102647.97
2023-02-14T13:46:20.755Z,102654.38
2023-02-14T13:49:02.237Z,102673.06
2023-02-14T13:51:51.244Z,102671.72
2023-02-14T13:54:31.266Z,102659.88
2023-02-14T13:57:01.513Z,102667.56
2023-02-14T13:59:34.218Z,102667.97
2023-02-14T14:02:35.293Z,102622.09
2023-02-14T14:05:40.600Z,102663.44
2023-02-14T14:08:41.465Z,102571.69
2023-02-14T14:11:16.351Z,102664.59
2023-02-14T14:14:07.470Z,102660.63
2023-02-14T14:16:38.073Z,102633.47
2023-02-14T14:19:33.270Z,102631.84
2023-02-14T14:22:04.807Z,102658.06
2023-02-14T14:24:37.883Z,102636.34
2023-02-14T14:27:15.813Z,102631.47
2023-02-14T14:29:50.137Z,102621.06
2023-02-14T14:32:22.370Z,102653.81
2023-02-14T14:34:53.518Z,102633.63
2023-02-14T14:37:25.148Z,102658.81
2023-02-14T14:39:59.734Z,102628.06
2023-02-14T14:42:32.598Z,102651.25
2023-02-14T14:45:05.668Z,102630.28
2023-02-14T14:47:43.074Z,102643.19
2023-02-14T14:50:18.978Z,102626.50
2023-02-14T14:52:51.481Z,102627.31
2023-02-14T14:55:26.895Z,102572.34
2023-02-14T14:57:59.723Z,102591.50
2023-02-14T15:00:31.169Z,102617.81
2023-02-14T15:03:04.351Z,102613.50
2023-02-14T15:05:37.582Z,102630.13
2023-02-14T15:08:24.093Z,102612.69
2023-02-14T15:11:02.329Z,102629.78
2023-02-14T15:13:49.717Z,102626.31
2023-02-14T15:16:21.981Z,102608.22
2023-02-14T15:18:53.860Z,102623.69
2023-02-14T15:21:23.690Z,102621.19
2023-02-14T15:23:54.808Z,102565.97
2023-02-14T15:26:32.387Z,102609.69
2023-02-14T15:29:04.125Z,102607.72
2023-02-14T15:31:37.429Z,102549.84
2023-02-14T15:34:08.643Z,102514.72
2023-02-14T15:36:39.481Z,102566.84
2023-02-14T15:39:12.332Z,102586.09
2023-02-14T15:41:48.865Z,102576.47
2023-02-14T15:44:22.915Z,102602.34
2023-02-14T15:46:58.634Z,102475.19
2023-02-14T15:49:35.709Z,102485.41
2023-02-14T15:52:07.780Z,102473.78
2023-02-14T15:54:41.701Z,102556.81
2023-02-14T15:57:23.748Z,102599.63
2023-02-14T15:59:54.101Z,102603.59
2023-02-14T16:02:32.563Z,102577.59
2023-02-14T16:05:07.821Z,102599.16
2023-02-14T16:07:37.643Z,102568.00
2023-02-14T16:10:24.083Z,102554.00
2023-02-14T16:13:26.606Z,102442.28
2023-02-14T16:16:17.461Z,102605.19
2023-02-14T16:19:03.105Z,102557.97
2023-02-14T16:25:47.128Z,102595.28
2023-02-14T16:35:28.529Z,102603.91
2023-02-14T16:38:43.392Z,102389.03
2023-02-14T16:41:24.178Z,102372.25
2023-02-14T16:48:40.456Z,102615.44
2023-02-14T16:55:14.783Z,102440.09
2023-02-14T16:58:31.594Z,102565.69
2023-02-14T17:01:47.345Z,102625.72
2023-02-14T17:05:03.168Z,102553.69
2023-02-14T17:07:52.023Z,102424.88
2023-02-14T17:10:32.592Z,102363.06
2023-02-14T17:13:29.765Z,102306.63
2023-02-14T17:16:20.823Z,102637.69
2023-02-14T17:19:23.162Z,102376.66
2023-02-14T17:22:07.323Z,102521.31
2023-02-14T17:24:46.419Z,102503.59
2023-02-14T17:27:26.869Z,102558.34
2023-02-14T17:30:03.469Z,102435.75
2023-02-14T17:32:37.971Z,102377.78
2023-02-14T17:35:20.243Z,102595.97
2023-02-14T17:38:00.774Z,102598.69
2023-02-14T17:40:36.341Z,102606.06
2023-02-14T17:43:17.854Z,102609.84
2023-02-14T17:45:57.280Z,102615.56
2023-02-14T17:48:36.045Z,102440.59
2023-02-14T17:51:07.893Z,102405.53
2023-02-14T17:53:46.290Z,102576.09
2023-02-14T17:56:22.432Z,102279.28
2023-02-14T17:58:59.918Z,102500.28
2023-02-14T18:01:36.660Z,102609.44
2023-02-14T18:04:12.319Z,102417.88
2023-02-14T18:07:01.563Z,102441.03
2023-02-14T18:09:38.024Z,102552.19
2023-02-14T18:12:14.918Z,102614.63
2023-02-14T18:15:09.477Z,102351.44
2023-02-14T18:17:51.070Z,102546.59
2023-02-14T18:20:37.017Z,102390.09
2023-02-14T18:23:21.537Z,102404.38
2023-02-14T18:25:59.849Z,102532.63
2023-02-14T18:28:41.040Z,102551.00
2023-02-14T18:31:13.765Z,102597.56
2023-02-14T18:33:55.422Z,102411.50
2023-02-14T18:36:27.828Z,102411.09
2023-02-14T18:38:58.654Z,102326.72
2023-02-14T18:41:32.269Z,102488.75
2023-02-14T18:44:03.091Z,102397.66
2023-02-14T18:46:38.280Z,102509.06
2023-02-14T18:49:09.726Z,102387.28
2023-02-14T18:51:41.437Z,102544.00
2023-02-14T18:54:11.528Z,102391.22
2023-02-14T18:56:44.163Z,102343.13
2023-02-14T18:59:18.254Z,102288.06
2023-02-14T19:01:48.668Z,102495.41
2023-02-14T19:04:18.749Z,102189.03
2023-02-14T19:06:49.548Z,102389.63
2023-02-14T19:09:20.076Z,102558.94
2023-02-14T19:11:52.821Z,102465.72
2023-02-14T19:14:22.760Z,102516.69
2023-02-14T19:16:53.653Z,102554.38
2023-02-14T19:19:24.348Z,102486.25
2023-02-14T19:22:01.147Z,102432.25
2023-02-14T19:24:31.669Z,102384.56
2023-02-14T19:27:06.876Z,102496.97
2023-02-14T19:29:38.525Z,102424.25
2023-02-14T19:32:09.353Z,102457.56
2023-02-14T19:34:42.749Z,102372.06
2023-02-14T19:37:22.723Z,102190.50
2023-02-14T19:39:53.077Z,102417.69
2023-02-14T19:42:26.256Z,102415.09
2023-02-14T19:44:58.223Z,102316.59
2023-02-14T19:47:46.226Z,102326.84
2023-02-14T19:50:21.929Z,102298.53
2023-02-14T20:01:28.746Z,102524.97
2023-02-14T20:04:57.011Z,102561.78
2023-02-14T20:11:50.704Z,102362.31
2023-02-14T20:15:31.287Z,102299.41
2023-02-14T20:20:44.694Z,102176.91
2023-02-14T20:35:03.165Z,102549.34
2023-02-14T20:38:34.247Z,102151.63
2023-02-14T20:41:54.233Z,102493.72
2023-02-14T20:45:22.298Z,102538.75
2023-02-14T21:06:18.129Z,102529.16
2023-02-14T21:09:04.881Z,102426.53
2023-02-14T21:17:17.096Z,102513.03
